sensor_id;sensor_type;location;lat;lon;timestamp;temperature;humidity
11142;DHT22;5625;50.122;19.864;2022-10-31T00:00:58;12.40;99.90
11142;DHT22;5625;50.122;19.864;2022-10-31T00:03:26;12.40;99.90
11142;DHT22;5625;50.122;19.864;2022-10-31T00:05:56;12.40;99.90
11142;DHT22;5625;50.122;19.864;2022-10-31T00:08:24;12.40;99.90
11142;DHT22;5625;50.122;19.864;2022-10-31T00:10:52;12.40;99.90
11142;DHT22;5625;50.122;19.864;2022-10-31T00:13:20;12.40;99.90
11142;DHT22;5625;50.122;19.864;2022-10-31T00:15:50;12.30;99.90
11142;DHT22;5625;50.122;19.864;2022-10-31T00:18:18;12.30;99.90
11142;DHT22;5625;50.122;19.864;2022-10-31T00:20:46;12.30;99.90
11142;DHT22;5625;50.122;19.864;2022-10-31T00:23:15;12.20;99.90
11142;DHT22;5625;50.122;19.864;2022-10-31T00:25:43;12.20;99.90
11142;DHT22;5625;50.122;19.864;2022-10-31T00:28:13;12.20;99.90
11142;DHT22;5625;50.122;19.864;2022-10-31T00:30:41;12.10;99.90
11142;DHT22;5625;50.122;19.864;2022-10-31T00:33:09;12.10;99.90
11142;DHT22;5625;50.122;19.864;2022-10-31T00:35:37;12.10;99.90
11142;DHT22;5625;50.122;19.864;2022-10-31T00:38:05;12.10;99.90
11142;DHT22;5625;50.122;19.864;2022-10-31T00:40:37;12.00;99.90
11142;DHT22;5625;50.122;19.864;2022-10-31T00:43:05;12.00;99.90
11142;DHT22;5625;50.122;19.864;2022-10-31T00:45:33;12.00;99.90
11142;DHT22;5625;50.122;19.864;2022-10-31T00:48:01;12.00;99.90
11142;DHT22;5625;50.122;19.864;2022-10-31T00:50:30;11.90;99.90
11142;DHT22;5625;50.122;19.864;2022-10-31T00:52:58;11.90;99.90
11142;DHT22;5625;50.122;19.864;2022-10-31T00:55:26;11.90;99.90
11142;DHT22;5625;50.122;19.864;2022-10-31T00:57:55;11.90;99.90
11142;DHT22;5625;50.122;19.864;2022-10-31T01:00:24;11.90;99.90
11142;DHT22;5625;50.122;19.864;2022-10-31T01:03:11;11.90;99.90
11142;DHT22;5625;50.122;19.864;2022-10-31T01:05:39;11.80;99.90
11142;DHT22;5625;50.122;19.864;2022-10-31T01:08:07;11.80;99.90
11142;DHT22;5625;50.122;19.864;2022-10-31T01:10:35;11.80;99.90
11142;DHT22;5625;50.122;19.864;2022-10-31T01:13:04;11.80;99.90
11142;DHT22;5625;50.122;19.864;2022-10-31T01:15:32;11.80;99.90
11142;DHT22;5625;50.122;19.864;2022-10-31T01:18:00;11.70;99.90
11142;DHT22;5625;50.122;19.864;2022-10-31T01:20:28;11.70;99.90
11142;DHT22;5625;50.122;19.864;2022-10-31T01:22:57;11.70;99.90
11142;DHT22;5625;50.122;19.864;2022-10-31T01:25:25;11.70;99.90
11142;DHT22;5625;50.122;19.864;2022-10-31T01:27:53;11.70;99.90
11142;DHT22;5625;50.122;19.864;2022-10-31T01:30:22;11.70;99.90
11142;DHT22;5625;50.122;19.864;2022-10-31T01:32:50;11.60;99.90
11142;DHT22;5625;50.122;19.864;2022-10-31T01:35:18;11.60;99.90
11142;DHT22;5625;50.122;19.864;2022-10-31T01:37:46;11.60;99.90
11142;DHT22;5625;50.122;19.864;2022-10-31T01:40:14;11.60;99.90
11142;DHT22;5625;50.122;19.864;2022-10-31T01:42:42;11.60;99.90
11142;DHT22;5625;50.122;19.864;2022-10-31T01:45:19;11.60;99.90
11142;DHT22;5625;50.122;19.864;2022-10-31T01:47:49;11.60;99.90
11142;DHT22;5625;50.122;19.864;2022-10-31T01:50:26;11.50;99.90
11142;DHT22;5625;50.122;19.864;2022-10-31T01:52:55;11.50;99.90
11142;DHT22;5625;50.122;19.864;2022-10-31T01:55:26;11.50;99.90
11142;DHT22;5625;50.122;19.864;2022-10-31T01:58:00;11.40;99.90
11142;DHT22;5625;50.122;19.864;2022-10-31T02:00:30;11.40;99.90
11142;DHT22;5625;50.122;19.864;2022-10-31T02:02:59;11.40;99.90
11142;DHT22;5625;50.122;19.864;2022-10-31T02:05:29;11.40;99.90
11142;DHT22;5625;50.122;19.864;2022-10-31T02:08:01;11.40;99.90
11142;DHT22;5625;50.122;19.864;2022-10-31T02:10:32;11.40;99.90
11142;DHT22;5625;50.122;19.864;2022-10-31T02:13:03;11.40;99.90
11142;DHT22;5625;50.122;19.864;2022-10-31T02:15:32;11.40;99.90
11142;DHT22;5625;50.122;19.864;2022-10-31T02:18:02;11.40;99.90
11142;DHT22;5625;50.122;19.864;2022-10-31T02:20:34;11.30;99.90
11142;DHT22;5625;50.122;19.864;2022-10-31T02:23:45;11.30;99.90
11142;DHT22;5625;50.122;19.864;2022-10-31T02:26:41;11.30;99.90
11142;DHT22;5625;50.122;19.864;2022-10-31T02:29:43;11.20;99.90
11142;DHT22;5625;50.122;19.864;2022-10-31T02:32:21;11.20;99.90
11142;DHT22;5625;50.122;19.864;2022-10-31T02:34:58;11.20;99.90
11142;DHT22;5625;50.122;19.864;2022-10-31T02:37:34;11.20;99.90
11142;DHT22;5625;50.122;19.864;2022-10-31T02:40:10;11.20;99.90
11142;DHT22;5625;50.122;19.864;2022-10-31T02:42:46;11.20;99.90
11142;DHT22;5625;50.122;19.864;2022-10-31T02:45:21;11.20;99.90
11142;DHT22;5625;50.122;19.864;2022-10-31T02:47:54;11.20;99.90
11142;DHT22;5625;50.122;19.864;2022-10-31T02:50:26;11.20;99.90
11142;DHT22;5625;50.122;19.864;2022-10-31T02:52:56;11.20;99.90
11142;DHT22;5625;50.122;19.864;2022-10-31T02:55:49;11.10;99.90
11142;DHT22;5625;50.122;19.864;2022-10-31T02:58:21;11.20;99.90
11142;DHT22;5625;50.122;19.864;2022-10-31T03:01:03;11.10;99.90
11142;DHT22;5625;50.122;19.864;2022-10-31T03:03:44;11.10;99.90
11142;DHT22;5625;50.122;19.864;2022-10-31T03:06:19;11.10;99.90
11142;DHT22;5625;50.122;19.864;2022-10-31T03:08:53;11.10;99.90
11142;DHT22;5625;50.122;19.864;2022-10-31T03:11:28;11.00;99.90
11142;DHT22;5625;50.122;19.864;2022-10-31T03:14:04;11.10;99.90
11142;DHT22;5625;50.122;19.864;2022-10-31T03:16:41;11.10;99.90
11142;DHT22;5625;50.122;19.864;2022-10-31T03:19:17;11.10;99.90
11142;DHT22;5625;50.122;19.864;2022-10-31T03:21:48;11.10;99.90
11142;DHT22;5625;50.122;19.864;2022-10-31T03:24:19;11.00;99.90
11142;DHT22;5625;50.122;19.864;2022-10-31T03:26:52;11.00;99.90
11142;DHT22;5625;50.122;19.864;2022-10-31T03:29:25;11.00;99.90
11142;DHT22;5625;50.122;19.864;2022-10-31T03:31:57;11.00;99.90
11142;DHT22;5625;50.122;19.864;2022-10-31T03:34:28;11.00;99.90
11142;DHT22;5625;50.122;19.864;2022-10-31T03:37:02;11.00;99.90
11142;DHT22;5625;50.122;19.864;2022-10-31T03:39:32;11.00;99.90
11142;DHT22;5625;50.122;19.864;2022-10-31T03:42:05;11.00;99.90
11142;DHT22;5625;50.122;19.864;2022-10-31T03:44:34;11.00;99.90
11142;DHT22;5625;50.122;19.864;2022-10-31T03:47:04;10.90;99.90
11142;DHT22;5625;50.122;19.864;2022-10-31T03:49:34;11.00;99.90
11142;DHT22;5625;50.122;19.864;2022-10-31T03:52:07;11.00;99.90
11142;DHT22;5625;50.122;19.864;2022-10-31T03:54:41;11.00;99.90
11142;DHT22;5625;50.122;19.864;2022-10-31T03:57:16;10.90;99.90
11142;DHT22;5625;50.122;19.864;2022-10-31T03:59:51;10.90;99.90
11142;DHT22;5625;50.122;19.864;2022-10-31T04:02:23;10.90;99.90
11142;DHT22;5625;50.122;19.864;2022-10-31T04:04:55;10.90;99.90
11142;DHT22;5625;50.122;19.864;2022-10-31T04:07:27;10.90;99.90
11142;DHT22;5625;50.122;19.864;2022-10-31T04:09:57;10.80;99.90
11142;DHT22;5625;50.122;19.864;2022-10-31T04:12:26;10.80;99.90
11142;DHT22;5625;50.122;19.864;2022-10-31T04:14:56;10.80;99.90
11142;DHT22;5625;50.122;19.864;2022-10-31T04:17:27;10.80;99.90
11142;DHT22;5625;50.122;19.864;2022-10-31T04:20:00;10.80;99.90
11142;DHT22;5625;50.122;19.864;2022-10-31T04:22:28;10.80;99.90
11142;DHT22;5625;50.122;19.864;2022-10-31T04:24:56;10.80;99.90
11142;DHT22;5625;50.122;19.864;2022-10-31T04:27:25;10.80;99.90
11142;DHT22;5625;50.122;19.864;2022-10-31T04:29:53;10.70;99.90
11142;DHT22;5625;50.122;19.864;2022-10-31T04:32:21;10.70;99.90
11142;DHT22;5625;50.122;19.864;2022-10-31T04:34:49;10.70;99.90
11142;DHT22;5625;50.122;19.864;2022-10-31T04:37:18;10.70;99.90
11142;DHT22;5625;50.122;19.864;2022-10-31T04:39:46;10.70;99.90
11142;DHT22;5625;50.122;19.864;2022-10-31T04:42:14;10.70;99.90
11142;DHT22;5625;50.122;19.864;2022-10-31T04:44:42;10.70;99.90
11142;DHT22;5625;50.122;19.864;2022-10-31T04:47:10;10.70;99.90
11142;DHT22;5625;50.122;19.864;2022-10-31T04:49:38;10.70;99.90
11142;DHT22;5625;50.122;19.864;2022-10-31T04:52:06;10.70;99.90
11142;DHT22;5625;50.122;19.864;2022-10-31T04:54:36;10.70;99.90
11142;DHT22;5625;50.122;19.864;2022-10-31T04:57:04;10.70;99.90
11142;DHT22;5625;50.122;19.864;2022-10-31T04:59:34;10.60;99.90
11142;DHT22;5625;50.122;19.864;2022-10-31T05:02:02;10.60;99.90
11142;DHT22;5625;50.122;19.864;2022-10-31T05:04:30;10.60;99.90
11142;DHT22;5625;50.122;19.864;2022-10-31T05:06:58;10.60;99.90
11142;DHT22;5625;50.122;19.864;2022-10-31T05:09:26;10.60;99.90
11142;DHT22;5625;50.122;19.864;2022-10-31T05:11:56;10.50;99.90
11142;DHT22;5625;50.122;19.864;2022-10-31T05:14:24;10.50;99.90
11142;DHT22;5625;50.122;19.864;2022-10-31T05:16:52;10.50;99.90
11142;DHT22;5625;50.122;19.864;2022-10-31T05:19:20;10.50;99.90
11142;DHT22;5625;50.122;19.864;2022-10-31T05:21:48;10.50;99.90
11142;DHT22;5625;50.122;19.864;2022-10-31T05:24:16;10.50;99.90
11142;DHT22;5625;50.122;19.864;2022-10-31T05:26:44;10.40;99.90
11142;DHT22;5625;50.122;19.864;2022-10-31T05:29:14;10.40;99.90
11142;DHT22;5625;50.122;19.864;2022-10-31T05:31:42;10.40;99.90
11142;DHT22;5625;50.122;19.864;2022-10-31T05:34:10;10.30;99.90
11142;DHT22;5625;50.122;19.864;2022-10-31T05:36:38;10.30;99.90
11142;DHT22;5625;50.122;19.864;2022-10-31T05:39:06;10.30;99.90
11142;DHT22;5625;50.122;19.864;2022-10-31T05:41:34;10.30;99.90
11142;DHT22;5625;50.122;19.864;2022-10-31T05:44:02;10.30;99.90
11142;DHT22;5625;50.122;19.864;2022-10-31T05:46:31;10.30;99.90
11142;DHT22;5625;50.122;19.864;2022-10-31T05:49:00;10.30;99.90
11142;DHT22;5625;50.122;19.864;2022-10-31T05:51:28;10.30;99.90
11142;DHT22;5625;50.122;19.864;2022-10-31T05:53:56;10.30;99.90
11142;DHT22;5625;50.122;19.864;2022-10-31T05:56:24;10.30;99.90
11142;DHT22;5625;50.122;19.864;2022-10-31T05:58:52;10.30;99.90
11142;DHT22;5625;50.122;19.864;2022-10-31T06:01:20;10.40;99.90
11142;DHT22;5625;50.122;19.864;2022-10-31T06:03:50;10.40;99.90
11142;DHT22;5625;50.122;19.864;2022-10-31T06:06:18;10.40;99.90
11142;DHT22;5625;50.122;19.864;2022-10-31T06:08:46;10.40;99.90
11142;DHT22;5625;50.122;19.864;2022-10-31T06:11:14;10.40;99.90
11142;DHT22;5625;50.122;19.864;2022-10-31T06:13:42;10.50;99.90
11142;DHT22;5625;50.122;19.864;2022-10-31T06:16:10;10.50;99.90
11142;DHT22;5625;50.122;19.864;2022-10-31T06:18:38;10.50;99.90
11142;DHT22;5625;50.122;19.864;2022-10-31T06:21:07;10.60;99.90
11142;DHT22;5625;50.122;19.864;2022-10-31T06:23:40;10.60;99.90
11142;DHT22;5625;50.122;19.864;2022-10-31T06:26:08;10.60;99.90
11142;DHT22;5625;50.122;19.864;2022-10-31T06:28:36;10.70;99.90
11142;DHT22;5625;50.122;19.864;2022-10-31T06:31:04;10.70;99.90
11142;DHT22;5625;50.122;19.864;2022-10-31T06:33:32;10.70;99.90
11142;DHT22;5625;50.122;19.864;2022-10-31T06:36:01;10.80;99.90
11142;DHT22;5625;50.122;19.864;2022-10-31T06:38:30;10.80;99.90
11142;DHT22;5625;50.122;19.864;2022-10-31T06:41:02;10.80;99.90
11142;DHT22;5625;50.122;19.864;2022-10-31T06:43:31;10.90;99.90
11142;DHT22;5625;50.122;19.864;2022-10-31T06:46:02;10.90;99.90
11142;DHT22;5625;50.122;19.864;2022-10-31T06:48:30;11.00;99.90
11142;DHT22;5625;50.122;19.864;2022-10-31T06:50:59;11.10;99.90
11142;DHT22;5625;50.122;19.864;2022-10-31T06:53:27;11.20;99.90
11142;DHT22;5625;50.122;19.864;2022-10-31T06:55:57;11.70;99.90
11142;DHT22;5625;50.122;19.864;2022-10-31T06:58:26;12.40;99.90
11142;DHT22;5625;50.122;19.864;2022-10-31T07:00:54;13.10;99.90
11142;DHT22;5625;50.122;19.864;2022-10-31T07:03:22;13.90;94.70
11142;DHT22;5625;50.122;19.864;2022-10-31T07:05:50;14.50;81.10
11142;DHT22;5625;50.122;19.864;2022-10-31T07:08:18;15.10;62.50
11142;DHT22;5625;50.122;19.864;2022-10-31T07:10:51;15.50;39.90
11142;DHT22;5625;50.122;19.864;2022-10-31T07:13:21;15.90;23.90
11142;DHT22;5625;50.122;19.864;2022-10-31T07:15:52;16.40;9.90
11142;DHT22;5625;50.122;19.864;2022-10-31T07:18:21;16.80;1.00
11142;DHT22;5625;50.122;19.864;2022-10-31T07:20:49;17.10;1.00
11142;DHT22;5625;50.122;19.864;2022-10-31T07:23:17;17.50;1.00
11142;DHT22;5625;50.122;19.864;2022-10-31T07:25:45;17.80;1.00
11142;DHT22;5625;50.122;19.864;2022-10-31T07:28:13;18.20;1.00
11142;DHT22;5625;50.122;19.864;2022-10-31T07:30:42;18.40;1.00
11142;DHT22;5625;50.122;19.864;2022-10-31T07:33:10;18.70;1.00
11142;DHT22;5625;50.122;19.864;2022-10-31T07:35:38;18.90;1.00
11142;DHT22;5625;50.122;19.864;2022-10-31T07:38:07;19.00;1.00
11142;DHT22;5625;50.122;19.864;2022-10-31T07:40:36;19.30;1.00
11142;DHT22;5625;50.122;19.864;2022-10-31T07:43:04;19.50;1.00
11142;DHT22;5625;50.122;19.864;2022-10-31T07:45:38;19.60;1.00
11142;DHT22;5625;50.122;19.864;2022-10-31T07:48:08;19.80;1.00
11142;DHT22;5625;50.122;19.864;2022-10-31T07:50:36;20.00;1.00
11142;DHT22;5625;50.122;19.864;2022-10-31T07:53:05;20.10;1.00
11142;DHT22;5625;50.122;19.864;2022-10-31T07:55:36;20.30;1.00
11142;DHT22;5625;50.122;19.864;2022-10-31T07:58:06;20.40;1.00
11142;DHT22;5625;50.122;19.864;2022-10-31T08:00:36;20.40;1.00
11142;DHT22;5625;50.122;19.864;2022-10-31T08:03:05;20.50;1.00
11142;DHT22;5625;50.122;19.864;2022-10-31T08:05:36;20.80;1.00
11142;DHT22;5625;50.122;19.864;2022-10-31T08:08:05;21.00;1.00
11142;DHT22;5625;50.122;19.864;2022-10-31T08:10:34;21.20;99.90
11142;DHT22;5625;50.122;19.864;2022-10-31T08:13:05;21.30;99.90
11142;DHT22;5625;50.122;19.864;2022-10-31T08:15:33;21.40;99.90
11142;DHT22;5625;50.122;19.864;2022-10-31T08:18:04;21.60;99.90
11142;DHT22;5625;50.122;19.864;2022-10-31T08:20:32;21.70;99.90
11142;DHT22;5625;50.122;19.864;2022-10-31T08:23:03;21.80;99.90
11142;DHT22;5625;50.122;19.864;2022-10-31T08:25:34;21.70;99.90
11142;DHT22;5625;50.122;19.864;2022-10-31T08:28:05;21.80;99.90
11142;DHT22;5625;50.122;19.864;2022-10-31T08:30:35;22.00;99.90
11142;DHT22;5625;50.122;19.864;2022-10-31T08:33:05;22.20;99.90
11142;DHT22;5625;50.122;19.864;2022-10-31T08:35:33;22.20;99.90
11142;DHT22;5625;50.122;19.864;2022-10-31T08:38:03;22.40;99.90
11142;DHT22;5625;50.122;19.864;2022-10-31T08:40:33;22.60;99.90
11142;DHT22;5625;50.122;19.864;2022-10-31T08:43:03;22.80;99.90
11142;DHT22;5625;50.122;19.864;2022-10-31T08:45:32;22.90;99.90
11142;DHT22;5625;50.122;19.864;2022-10-31T08:48:03;22.90;99.90
11142;DHT22;5625;50.122;19.864;2022-10-31T08:50:35;23.10;99.90
11142;DHT22;5625;50.122;19.864;2022-10-31T08:53:08;23.10;97.40
11142;DHT22;5625;50.122;19.864;2022-10-31T08:55:37;23.20;1.00
11142;DHT22;5625;50.122;19.864;2022-10-31T08:58:08;23.40;93.60
11142;DHT22;5625;50.122;19.864;2022-10-31T09:00:37;23.50;99.40
11142;DHT22;5625;50.122;19.864;2022-10-31T09:03:13;23.50;99.10
11142;DHT22;5625;50.122;19.864;2022-10-31T09:05:41;23.70;99.10
11142;DHT22;5625;50.122;19.864;2022-10-31T09:08:11;23.90;99.00
11142;DHT22;5625;50.122;19.864;2022-10-31T09:10:43;24.00;98.80
11142;DHT22;5625;50.122;19.864;2022-10-31T09:13:15;24.20;98.50
11142;DHT22;5625;50.122;19.864;2022-10-31T09:15:46;24.30;98.40
11142;DHT22;5625;50.122;19.864;2022-10-31T09:18:18;24.20;98.10
11142;DHT22;5625;50.122;19.864;2022-10-31T09:20:48;24.20;98.00
11142;DHT22;5625;50.122;19.864;2022-10-31T09:23:19;24.30;97.90
11142;DHT22;5625;50.122;19.864;2022-10-31T09:25:49;24.40;98.00
11142;DHT22;5625;50.122;19.864;2022-10-31T09:28:20;24.40;97.50
11142;DHT22;5625;50.122;19.864;2022-10-31T09:30:50;24.50;97.20
11142;DHT22;5625;50.122;19.864;2022-10-31T09:33:18;24.50;97.10
11142;DHT22;5625;50.122;19.864;2022-10-31T09:35:47;24.70;97.30
11142;DHT22;5625;50.122;19.864;2022-10-31T09:38:18;24.80;96.90
11142;DHT22;5625;50.122;19.864;2022-10-31T09:40:48;24.70;96.70
11142;DHT22;5625;50.122;19.864;2022-10-31T09:43:25;24.90;96.70
11142;DHT22;5625;50.122;19.864;2022-10-31T09:46:01;25.10;96.30
11142;DHT22;5625;50.122;19.864;2022-10-31T09:48:45;25.10;96.20
11142;DHT22;5625;50.122;19.864;2022-10-31T09:51:19;25.30;96.20
11142;DHT22;5625;50.122;19.864;2022-10-31T09:53:52;25.40;96.10
11142;DHT22;5625;50.122;19.864;2022-10-31T09:56:23;25.50;95.50
11142;DHT22;5625;50.122;19.864;2022-10-31T09:58:54;25.70;1.00
11142;DHT22;5625;50.122;19.864;2022-10-31T10:01:39;25.70;99.90
11142;DHT22;5625;50.122;19.864;2022-10-31T10:04:24;25.60;99.90
11142;DHT22;5625;50.122;19.864;2022-10-31T10:06:56;25.30;99.90
11142;DHT22;5625;50.122;19.864;2022-10-31T10:09:29;24.90;99.90
11142;DHT22;5625;50.122;19.864;2022-10-31T10:12:05;24.70;1.00
11142;DHT22;5625;50.122;19.864;2022-10-31T10:14:53;24.40;1.00
11142;DHT22;5625;50.122;19.864;2022-10-31T10:17:32;24.10;27.20
11142;DHT22;5625;50.122;19.864;2022-10-31T10:20:26;23.80;99.90
11142;DHT22;5625;50.122;19.864;2022-10-31T10:23:06;23.50;99.90
11142;DHT22;5625;50.122;19.864;2022-10-31T10:25:40;23.30;1.00
11142;DHT22;5625;50.122;19.864;2022-10-31T10:28:19;23.00;98.70
11142;DHT22;5625;50.122;19.864;2022-10-31T10:30:52;22.90;99.30
11142;DHT22;5625;50.122;19.864;2022-10-31T10:33:26;22.70;99.60
11142;DHT22;5625;50.122;19.864;2022-10-31T10:35:59;22.50;99.90
11142;DHT22;5625;50.122;19.864;2022-10-31T10:38:32;22.40;99.90
11142;DHT22;5625;50.122;19.864;2022-10-31T10:41:06;22.30;99.90
11142;DHT22;5625;50.122;19.864;2022-10-31T10:43:37;22.20;99.90
11142;DHT22;5625;50.122;19.864;2022-10-31T10:46:17;22.10;99.90
11142;DHT22;5625;50.122;19.864;2022-10-31T10:49:11;21.90;99.90
11142;DHT22;5625;50.122;19.864;2022-10-31T10:51:45;21.80;99.90
11142;DHT22;5625;50.122;19.864;2022-10-31T10:54:46;21.70;99.90
11142;DHT22;5625;50.122;19.864;2022-10-31T10:57:38;21.60;99.90
11142;DHT22;5625;50.122;19.864;2022-10-31T11:00:20;21.50;99.90
11142;DHT22;5625;50.122;19.864;2022-10-31T11:02:49;21.40;99.90
11142;DHT22;5625;50.122;19.864;2022-10-31T11:05:25;21.30;99.90
11142;DHT22;5625;50.122;19.864;2022-10-31T11:07:56;21.30;99.90
11142;DHT22;5625;50.122;19.864;2022-10-31T11:10:24;21.20;99.90
11142;DHT22;5625;50.122;19.864;2022-10-31T11:13:06;21.20;99.90
11142;DHT22;5625;50.122;19.864;2022-10-31T11:15:53;21.10;99.90
11142;DHT22;5625;50.122;19.864;2022-10-31T11:18:24;21.10;99.90
11142;DHT22;5625;50.122;19.864;2022-10-31T11:20:53;21.00;99.90
11142;DHT22;5625;50.122;19.864;2022-10-31T11:23:23;21.00;99.90
11142;DHT22;5625;50.122;19.864;2022-10-31T11:25:55;20.90;99.90
11142;DHT22;5625;50.122;19.864;2022-10-31T11:28:26;20.90;99.90
11142;DHT22;5625;50.122;19.864;2022-10-31T11:30:57;20.90;99.90
11142;DHT22;5625;50.122;19.864;2022-10-31T11:33:29;20.80;99.90
11142;DHT22;5625;50.122;19.864;2022-10-31T11:35:58;20.80;99.90
11142;DHT22;5625;50.122;19.864;2022-10-31T11:38:32;20.80;99.90
11142;DHT22;5625;50.122;19.864;2022-10-31T11:41:09;20.70;99.90
11142;DHT22;5625;50.122;19.864;2022-10-31T11:43:50;20.70;99.90
11142;DHT22;5625;50.122;19.864;2022-10-31T11:46:21;20.70;99.90
11142;DHT22;5625;50.122;19.864;2022-10-31T11:48:53;20.70;99.90
11142;DHT22;5625;50.122;19.864;2022-10-31T11:51:25;20.60;99.90
11142;DHT22;5625;50.122;19.864;2022-10-31T11:53:57;20.70;99.90
11142;DHT22;5625;50.122;19.864;2022-10-31T11:56:38;20.60;99.90
11142;DHT22;5625;50.122;19.864;2022-10-31T11:59:17;20.60;99.90
11142;DHT22;5625;50.122;19.864;2022-10-31T12:01:48;20.60;99.90
11142;DHT22;5625;50.122;19.864;2022-10-31T12:04:16;20.60;99.90
11142;DHT22;5625;50.122;19.864;2022-10-31T12:06:46;20.50;99.90
11142;DHT22;5625;50.122;19.864;2022-10-31T12:09:20;20.50;99.90
11142;DHT22;5625;50.122;19.864;2022-10-31T12:15:07;20.50;99.90
11142;DHT22;5625;50.122;19.864;2022-10-31T12:17:42;20.50;99.90
11142;DHT22;5625;50.122;19.864;2022-10-31T12:20:21;20.50;99.90
11142;DHT22;5625;50.122;19.864;2022-10-31T12:22:59;20.40;99.90
11142;DHT22;5625;50.122;19.864;2022-10-31T12:25:37;20.40;99.90
11142;DHT22;5625;50.122;19.864;2022-10-31T12:28:36;20.40;99.90
11142;DHT22;5625;50.122;19.864;2022-10-31T12:31:34;20.40;99.90
11142;DHT22;5625;50.122;19.864;2022-10-31T12:34:32;20.40;99.90
11142;DHT22;5625;50.122;19.864;2022-10-31T12:37:11;20.40;99.90
11142;DHT22;5625;50.122;19.864;2022-10-31T12:39:44;20.30;99.90
11142;DHT22;5625;50.122;19.864;2022-10-31T12:42:22;20.30;99.90
11142;DHT22;5625;50.122;19.864;2022-10-31T12:45:09;20.30;99.90
11142;DHT22;5625;50.122;19.864;2022-10-31T12:47:59;20.30;99.90
11142;DHT22;5625;50.122;19.864;2022-10-31T12:50:39;20.30;99.90
11142;DHT22;5625;50.122;19.864;2022-10-31T12:53:25;20.30;99.90
11142;DHT22;5625;50.122;19.864;2022-10-31T12:56:06;20.30;99.90
11142;DHT22;5625;50.122;19.864;2022-10-31T12:58:40;20.30;99.90
11142;DHT22;5625;50.122;19.864;2022-10-31T13:01:12;20.30;99.90
11142;DHT22;5625;50.122;19.864;2022-10-31T13:03:47;20.30;99.90
11142;DHT22;5625;50.122;19.864;2022-10-31T13:06:20;20.20;99.90
11142;DHT22;5625;50.122;19.864;2022-10-31T13:08:52;20.20;99.90
11142;DHT22;5625;50.122;19.864;2022-10-31T13:11:24;20.20;99.90
11142;DHT22;5625;50.122;19.864;2022-10-31T13:14:00;20.20;99.90
11142;DHT22;5625;50.122;19.864;2022-10-31T13:16:34;20.20;99.90
11142;DHT22;5625;50.122;19.864;2022-10-31T13:19:10;20.20;99.90
11142;DHT22;5625;50.122;19.864;2022-10-31T13:21:45;20.20;99.90
11142;DHT22;5625;50.122;19.864;2022-10-31T13:24:18;20.20;99.90
11142;DHT22;5625;50.122;19.864;2022-10-31T13:26:50;20.20;99.90
11142;DHT22;5625;50.122;19.864;2022-10-31T13:29:24;20.10;99.90
11142;DHT22;5625;50.122;19.864;2022-10-31T13:31:59;20.10;99.90
11142;DHT22;5625;50.122;19.864;2022-10-31T13:34:32;20.10;99.90
11142;DHT22;5625;50.122;19.864;2022-10-31T13:37:06;20.10;99.90
11142;DHT22;5625;50.122;19.864;2022-10-31T13:39:49;20.10;99.90
11142;DHT22;5625;50.122;19.864;2022-10-31T13:42:23;20.10;99.90
11142;DHT22;5625;50.122;19.864;2022-10-31T13:44:53;20.10;99.90
11142;DHT22;5625;50.122;19.864;2022-10-31T13:47:24;20.10;99.90
11142;DHT22;5625;50.122;19.864;2022-10-31T13:50:04;20.10;99.90
11142;DHT22;5625;50.122;19.864;2022-10-31T13:52:32;20.00;99.90
11142;DHT22;5625;50.122;19.864;2022-10-31T13:55:00;20.00;99.90
11142;DHT22;5625;50.122;19.864;2022-10-31T13:57:32;20.00;99.90
11142;DHT22;5625;50.122;19.864;2022-10-31T14:00:06;20.00;99.90
11142;DHT22;5625;50.122;19.864;2022-10-31T14:02:36;19.90;99.90
11142;DHT22;5625;50.122;19.864;2022-10-31T14:05:22;19.90;99.90
11142;DHT22;5625;50.122;19.864;2022-10-31T14:07:52;19.90;99.90
11142;DHT22;5625;50.122;19.864;2022-10-31T14:10:24;19.90;99.90
11142;DHT22;5625;50.122;19.864;2022-10-31T14:13:02;19.80;99.90
11142;DHT22;5625;50.122;19.864;2022-10-31T14:15:36;19.80;99.90
11142;DHT22;5625;50.122;19.864;2022-10-31T14:18:07;19.80;99.90
11142;DHT22;5625;50.122;19.864;2022-10-31T14:20:49;19.80;99.90
11142;DHT22;5625;50.122;19.864;2022-10-31T14:23:44;19.70;99.90
11142;DHT22;5625;50.122;19.864;2022-10-31T14:26:20;19.70;99.90
11142;DHT22;5625;50.122;19.864;2022-10-31T14:28:50;19.60;99.90
11142;DHT22;5625;50.122;19.864;2022-10-31T14:31:32;19.60;99.90
11142;DHT22;5625;50.122;19.864;2022-10-31T14:34:04;19.50;99.90
11142;DHT22;5625;50.122;19.864;2022-10-31T14:36:41;19.50;99.90
11142;DHT22;5625;50.122;19.864;2022-10-31T14:39:15;19.50;99.90
11142;DHT22;5625;50.122;19.864;2022-10-31T14:41:56;19.50;99.90
11142;DHT22;5625;50.122;19.864;2022-10-31T14:44:51;19.40;99.90
11142;DHT22;5625;50.122;19.864;2022-10-31T14:47:31;19.30;99.90
11142;DHT22;5625;50.122;19.864;2022-10-31T14:50:29;19.20;99.90
11142;DHT22;5625;50.122;19.864;2022-10-31T14:53:03;19.20;99.90
11142;DHT22;5625;50.122;19.864;2022-10-31T14:55:32;19.10;99.90
11142;DHT22;5625;50.122;19.864;2022-10-31T14:58:02;19.10;99.90
11142;DHT22;5625;50.122;19.864;2022-10-31T15:00:33;19.00;99.90
11142;DHT22;5625;50.122;19.864;2022-10-31T15:03:11;18.90;99.90
11142;DHT22;5625;50.122;19.864;2022-10-31T15:05:46;18.90;99.90
11142;DHT22;5625;50.122;19.864;2022-10-31T15:08:31;18.80;99.90
11142;DHT22;5625;50.122;19.864;2022-10-31T15:11:03;18.70;99.90
11142;DHT22;5625;50.122;19.864;2022-10-31T15:13:45;18.70;99.90
11142;DHT22;5625;50.122;19.864;2022-10-31T15:16:16;18.60;99.90
11142;DHT22;5625;50.122;19.864;2022-10-31T15:18:49;18.50;99.90
11142;DHT22;5625;50.122;19.864;2022-10-31T15:21:18;18.40;99.90
11142;DHT22;5625;50.122;19.864;2022-10-31T15:23:50;18.40;99.90
11142;DHT22;5625;50.122;19.864;2022-10-31T15:26:21;18.30;99.90
11142;DHT22;5625;50.122;19.864;2022-10-31T15:29:00;18.20;99.90
11142;DHT22;5625;50.122;19.864;2022-10-31T15:31:29;18.10;99.90
11142;DHT22;5625;50.122;19.864;2022-10-31T15:34:02;18.10;99.90
11142;DHT22;5625;50.122;19.864;2022-10-31T15:36:31;18.00;99.90
11142;DHT22;5625;50.122;19.864;2022-10-31T15:39:08;17.90;99.90
11142;DHT22;5625;50.122;19.864;2022-10-31T15:41:46;17.90;99.90
11142;DHT22;5625;50.122;19.864;2022-10-31T15:44:24;17.80;99.90
11142;DHT22;5625;50.122;19.864;2022-10-31T15:46:55;17.80;99.90
11142;DHT22;5625;50.122;19.864;2022-10-31T15:49:31;17.70;99.90
11142;DHT22;5625;50.122;19.864;2022-10-31T15:52:05;17.60;99.90
11142;DHT22;5625;50.122;19.864;2022-10-31T15:54:36;17.60;99.90
11142;DHT22;5625;50.122;19.864;2022-10-31T15:57:10;17.50;99.90
11142;DHT22;5625;50.122;19.864;2022-10-31T15:59:40;17.40;99.90
11142;DHT22;5625;50.122;19.864;2022-10-31T16:02:12;17.40;99.90
11142;DHT22;5625;50.122;19.864;2022-10-31T16:04:49;17.30;99.90
11142;DHT22;5625;50.122;19.864;2022-10-31T16:07:18;17.30;99.90
11142;DHT22;5625;50.122;19.864;2022-10-31T16:09:55;17.20;99.90